Time;durP1;ratioP1;P1;durP2;ratioP2;P2;SDS_P1;SDS_P2;PMS_P1;PMS_P2;Temp;Humidity;BMP_temperature;BMP_pressure;BME280_temperature;BME280_humidity;BME280_pressure;Samples;Min_cycle;Max_cycle;Signal;HPM_P1;HPM_P2
2023/02/04 00:01:06;;;;;;;10.32;4.45;;;1.10;99.90;;;;;;5072001;28;20020;-79
2023/02/04 00:03:31;;;;;;;8.50;4.00;;;1.10;99.90;;;;;;5073810;28;20070;-81
2023/02/04 00:05:57;;;;;;;5.57;3.55;;;1.10;99.90;;;;;;5071871;28;20039;-82
2023/02/04 00:08:23;;;;;;;7.07;4.53;;;1.10;99.90;;;;;;5073565;28;20119;-80
2023/02/04 00:10:48;;;;;;;9.93;4.13;;;1.10;99.90;;;;;;5072126;28;20443;-80
2023/02/04 00:13:14;;;;;;;13.45;7.55;;;1.10;99.90;;;;;;5073150;28;20023;-80
2023/02/04 00:15:39;;;;;;;5.15;4.57;;;1.10;99.90;;;;;;5073511;28;20032;-80
2023/02/04 00:18:06;;;;;;;6.22;4.05;;;1.20;99.90;;;;;;5073040;28;20478;-80
2023/02/04 00:20:32;;;;;;;6.53;3.90;;;1.10;99.90;;;;;;5072147;28;20075;-80
2023/02/04 00:22:57;;;;;;;8.05;4.80;;;1.10;99.90;;;;;;5073202;28;20126;-80
2023/02/04 00:25:23;;;;;;;6.13;4.13;;;1.20;99.90;;;;;;5073250;28;20039;-80
2023/02/04 00:27:48;;;;;;;8.88;3.97;;;1.10;99.90;;;;;;5071749;28;20094;-80
2023/02/04 00:30:14;;;;;;;7.60;3.50;;;1.20;99.90;;;;;;5071953;28;20530;-80
2023/02/04 00:32:40;;;;;;;6.18;3.40;;;1.10;99.90;;;;;;5072948;28;20543;-81
2023/02/04 00:35:06;;;;;;;7.15;3.78;;;1.10;99.90;;;;;;5071473;28;20424;-80
2023/02/04 00:37:31;;;;;;;5.63;4.10;;;1.10;99.90;;;;;;5072998;28;20206;-80
2023/02/04 00:39:57;;;;;;;6.05;3.75;;;1.10;99.90;;;;;;5071887;28;20071;-80
2023/02/04 00:42:22;;;;;;;5.05;2.95;;;1.10;99.90;;;;;;5072881;28;20390;-80
2023/02/04 00:44:48;;;;;;;4.65;3.08;;;1.00;99.90;;;;;;5071837;28;20031;-80
2023/02/04 00:47:14;;;;;;;2.90;2.40;;;1.00;99.90;;;;;;5072725;28;20025;-79
2023/02/04 00:49:39;;;;;;;3.90;2.33;;;1.00;99.90;;;;;;5073192;28;20112;-80
2023/02/04 00:52:05;;;;;;;2.97;2.53;;;1.00;99.90;;;;;;5071502;28;20367;-79
2023/02/04 00:54:30;;;;;;;5.45;2.72;;;1.00;99.90;;;;;;5073061;28;20363;-79
2023/02/04 00:56:56;;;;;;;3.22;2.92;;;1.00;99.90;;;;;;5072706;28;20020;-79
2023/02/04 00:59:22;;;;;;;6.47;4.05;;;1.00;99.90;;;;;;5072919;28;20031;-79
2023/02/04 01:01:47;;;;;;;5.50;3.03;;;1.00;99.90;;;;;;5071452;28;20013;-79
2023/02/04 01:04:13;;;;;;;2.55;2.35;;;1.00;99.90;;;;;;5071794;28;20025;-81
2023/02/04 01:06:39;;;;;;;3.95;2.80;;;1.00;99.90;;;;;;5072698;28;20028;-80
2023/02/04 01:09:05;;;;;;;3.58;2.50;;;1.00;99.90;;;;;;5071506;28;20119;-79
2023/02/04 01:11:31;;;;;;;2.17;1.98;;;1.00;99.90;;;;;;5071259;28;20116;-80
2023/02/04 01:13:56;;;;;;;2.70;2.47;;;1.00;99.90;;;;;;5072860;28;20020;-80
2023/02/04 01:16:22;;;;;;;3.65;2.58;;;0.90;99.90;;;;;;5072517;28;20016;-81
2023/02/04 01:18:48;;;;;;;3.17;2.15;;;0.90;99.90;;;;;;5072960;28;20024;-79
2023/02/04 01:21:14;;;;;;;2.50;2.30;;;0.90;99.90;;;;;;5071434;28;20044;-79
2023/02/04 01:23:39;;;;;;;3.65;2.80;;;0.90;99.90;;;;;;5072624;28;20028;-79
2023/02/04 01:26:05;;;;;;;8.75;3.92;;;0.90;99.90;;;;;;5071160;28;20040;-81
2023/02/04 01:28:31;;;;;;;3.95;2.20;;;0.90;99.90;;;;;;5071056;28;20041;-81
2023/02/04 01:30:57;;;;;;;2.28;1.92;;;0.90;99.90;;;;;;5071301;28;20523;-80
2023/02/04 01:33:22;;;;;;;4.90;2.13;;;0.90;99.90;;;;;;5071173;28;20031;-79
2023/02/04 01:35:48;;;;;;;4.18;2.50;;;0.90;99.90;;;;;;5071376;28;20031;-81
2023/02/04 01:38:13;;;;;;;1.52;1.42;;;0.90;99.90;;;;;;5072339;28;20029;-80
2023/02/04 01:40:40;;;;;;;2.70;2.08;;;1.00;99.90;;;;;;5071361;28;20023;-80
2023/02/04 01:43:06;;;;;;;3.28;1.80;;;1.00;99.90;;;;;;5072237;28;20036;-80
2023/02/04 01:45:34;;;;;;;2.08;1.90;;;1.00;99.90;;;;;;5071238;28;20374;-80
2023/02/04 01:48:04;;;;;;;2.85;1.67;;;1.00;99.90;;;;;;5073191;28;20040;-80
2023/02/04 01:50:30;;;;;;;2.20;2.10;;;1.00;99.90;;;;;;5075071;28;20024;-80
2023/02/04 01:52:56;;;;;;;2.08;1.33;;;1.00;99.90;;;;;;5074506;28;20021;-80
2023/02/04 01:55:26;;;;;;;2.33;1.83;;;1.00;99.90;;;;;;5075978;28;20031;-80
2023/02/04 01:57:52;;;;;;;1.55;1.55;;;0.90;99.90;;;;;;5074675;28;20501;-80
2023/02/04 02:00:30;;;;;;;1.80;1.08;;;0.90;99.90;;;;;;5074501;28;20070;-78
2023/02/04 02:02:56;;;;;;;1.10;1.10;;;0.80;99.90;;;;;;5074240;28;20040;-78
2023/02/04 02:05:34;;;;;;;1.70;1.65;;;0.70;99.90;;;;;;5075802;28;20104;-80
2023/02/04 02:08:02;;;;;;;1.73;1.73;;;0.70;99.90;;;;;;5075533;28;20047;-81
2023/02/04 02:10:28;;;;;;;1.90;1.80;;;0.70;99.90;;;;;;5075747;28;20020;-80
2023/02/04 02:12:55;;;;;;;1.80;1.30;;;0.70;99.90;;;;;;5074198;28;20028;-78
2023/02/04 02:15:21;;;;;;;1.95;1.85;;;0.60;99.90;;;;;;5074369;28;20017;-80
2023/02/04 02:17:46;;;;;;;2.28;2.08;;;0.60;99.90;;;;;;5074096;28;20016;-78
2023/02/04 02:20:15;;;;;;;2.75;2.10;;;0.60;99.90;;;;;;5074286;28;20017;-80
2023/02/04 02:23:23;;;;;;;2.67;2.35;;;0.50;99.90;;;;;;5074259;28;20462;-80
2023/02/04 02:25:49;;;;;;;2.53;2.30;;;0.50;99.90;;;;;;5058234;28;20509;-80
2023/02/04 02:28:18;;;;;;;2.85;2.58;;;0.50;99.90;;;;;;5075010;28;20048;-80
2023/02/04 02:30:45;;;;;;;3.50;2.40;;;0.40;99.90;;;;;;5074205;28;20430;-80
2023/02/04 02:33:16;;;;;;;2.63;2.42;;;0.40;99.90;;;;;;5074165;28;20012;-80
2023/02/04 02:35:43;;;;;;;2.58;2.33;;;0.40;99.90;;;;;;5075405;28;20477;-80
2023/02/04 02:38:11;;;;;;;1.75;1.63;;;0.40;99.90;;;;;;5073700;28;20078;-80
2023/02/04 02:40:38;;;;;;;2.03;1.80;;;0.30;99.90;;;;;;5075161;28;20064;-80
2023/02/04 02:43:05;;;;;;;1.48;1.38;;;0.30;99.90;;;;;;5073461;28;20397;-79
2023/02/04 02:45:33;;;;;;;2.58;1.67;;;0.30;99.90;;;;;;5075045;28;20047;-81
2023/02/04 02:48:03;;;;;;;2.97;2.35;;;0.30;99.90;;;;;;5073464;28;20036;-80
2023/02/04 02:50:31;;;;;;;3.05;2.75;;;0.30;99.90;;;;;;5075030;28;20020;-81
2023/02/04 02:52:57;;;;;;;2.97;2.30;;;0.30;99.90;;;;;;5074774;28;20568;-79
2023/02/04 02:55:27;;;;;;;2.65;2.45;;;0.30;99.90;;;;;;5073599;28;20020;-80
2023/02/04 02:57:54;;;;;;;4.22;2.90;;;0.20;99.90;;;;;;5072938;28;20044;-80
2023/02/04 03:00:25;;;;;;;4.13;2.90;;;0.20;99.90;;;;;;5074723;28;20036;-79
2023/02/04 03:03:05;;;;;;;3.33;2.78;;;0.20;99.90;;;;;;5073241;28;20507;-78
2023/02/04 03:05:35;;;;;;;4.10;3.10;;;0.20;99.90;;;;;;5066734;28;20493;-80
2023/02/04 03:08:01;;;;;;;2.72;2.53;;;0.10;99.90;;;;;;5054581;28;20086;-78
2023/02/04 03:10:27;;;;;;;2.88;2.67;;;0.10;99.90;;;;;;5054668;28;20017;-80
2023/02/04 03:12:53;;;;;;;2.50;2.30;;;0.10;99.90;;;;;;5054706;28;20104;-80
2023/02/04 03:15:19;;;;;;;3.03;2.00;;;0.00;99.90;;;;;;5054428;28;20028;-81
2023/02/04 03:17:45;;;;;;;2.75;2.58;;;0.10;99.90;;;;;;5054579;28;20024;-81
2023/02/04 03:20:12;;;;;;;2.33;2.13;;;0.00;99.90;;;;;;5053147;28;20103;-81
2023/02/04 03:22:38;;;;;;;2.50;2.30;;;0.00;99.90;;;;;;5054534;28;20021;-80
2023/02/04 03:25:04;;;;;;;2.00;1.90;;;0.00;99.90;;;;;;5053049;28;20036;-80
2023/02/04 03:27:29;;;;;;;2.33;2.13;;;0.00;99.90;;;;;;5054239;28;20174;-81
2023/02/04 03:29:55;;;;;;;2.35;2.15;;;0.00;99.90;;;;;;5052818;28;20029;-80
2023/02/04 03:32:21;;;;;;;2.38;2.17;;;0.00;99.90;;;;;;5053162;28;20029;-80
2023/02/04 03:34:46;;;;;;;3.00;2.80;;;0.00;99.90;;;;;;5052832;28;20021;-79
2023/02/04 03:37:13;;;;;;;3.20;2.92;;;0.00;99.90;;;;;;5052843;28;20013;-80
2023/02/04 03:39:39;;;;;;;2.78;2.50;;;0.00;99.90;;;;;;5052909;28;20498;-81
2023/02/04 03:42:04;;;;;;;3.17;2.88;;;0.00;99.90;;;;;;5053980;28;20021;-80
2023/02/04 03:44:30;;;;;;;3.35;3.05;;;0.00;99.90;;;;;;5052652;28;20017;-80
2023/02/04 03:46:55;;;;;;;3.92;3.30;;;-0.10;99.90;;;;;;5052626;28;20087;-81
2023/02/04 03:49:22;;;;;;;2.60;2.40;;;-0.20;99.90;;;;;;5052529;28;20099;-80
2023/02/04 03:51:47;;;;;;;3.35;3.03;;;-0.30;99.90;;;;;;5052467;28;20390;-79
2023/02/04 03:54:13;;;;;;;4.85;3.83;;;-0.30;99.90;;;;;;5053837;28;20033;-79
2023/02/04 03:56:38;;;;;;;3.60;3.30;;;-0.40;99.90;;;;;;5053740;28;20116;-80
2023/02/04 03:59:04;;;;;;;5.05;3.50;;;-0.40;99.90;;;;;;5052335;28;20033;-80
2023/02/04 04:01:30;;;;;;;7.10;4.25;;;-0.50;99.90;;;;;;5053535;28;20073;-81
2023/02/04 04:03:55;;;;;;;7.18;4.20;;;-0.50;99.90;;;;;;5052392;28;20029;-81
2023/02/04 04:06:21;;;;;;;6.63;5.57;;;-0.50;99.90;;;;;;5052300;28;20021;-80
2023/02/04 04:08:47;;;;;;;6.63;4.72;;;-0.60;99.90;;;;;;5053482;28;20037;-80
2023/02/04 04:11:12;;;;;;;8.57;4.85;;;-0.70;99.90;;;;;;5051623;28;20048;-80
2023/02/04 04:13:38;;;;;;;4.90;4.22;;;-0.80;99.90;;;;;;5052253;28;20021;-80
2023/02/04 04:16:04;;;;;;;4.82;3.88;;;-1.00;99.90;;;;;;5052216;28;20021;-79
2023/02/04 04:18:31;;;;;;;6.25;4.63;;;-1.10;99.90;;;;;;5053478;28;20087;-79
2023/02/04 04:20:57;;;;;;;6.30;5.35;;;-1.10;99.90;;;;;;5051963;28;20051;-79
2023/02/04 04:23:23;;;;;;;7.40;6.10;;;-1.20;99.90;;;;;;5052154;28;20044;-80
2023/02/04 04:25:49;;;;;;;6.22;4.93;;;-1.40;99.90;;;;;;5053110;28;20455;-79
2023/02/04 04:28:14;;;;;;;4.13;3.83;;;-1.50;99.90;;;;;;5053207;28;20072;-80
2023/02/04 04:30:41;;;;;;;5.93;4.93;;;-1.60;99.90;;;;;;5052356;28;20467;-79
2023/02/04 04:33:06;;;;;;;6.75;5.03;;;-1.60;99.90;;;;;;5051930;28;20051;-79
2023/02/04 04:35:33;;;;;;;6.18;4.78;;;-1.60;99.90;;;;;;5051892;28;20024;-79
2023/02/04 04:38:00;;;;;;;7.03;5.38;;;-1.70;99.90;;;;;;5051972;28;20021;-80
2023/02/04 04:40:25;;;;;;;6.60;4.88;;;-1.70;99.90;;;;;;5051825;28;20084;-79
2023/02/04 04:42:51;;;;;;;7.85;5.63;;;-1.80;99.90;;;;;;5051894;28;20147;-79
2023/02/04 04:45:16;;;;;;;4.85;4.13;;;-1.80;99.90;;;;;;5051775;28;20108;-79
2023/02/04 04:47:42;;;;;;;7.30;5.10;;;-1.80;99.90;;;;;;5053357;28;20021;-78
2023/02/04 04:50:08;;;;;;;8.02;5.50;;;-1.80;99.90;;;;;;5052944;28;20474;-78
2023/02/04 04:52:33;;;;;;;7.38;5.13;;;-1.90;99.90;;;;;;5052982;28;20470;-79
2023/02/04 04:54:59;;;;;;;6.68;5.18;;;-2.00;99.90;;;;;;5051727;28;20021;-78
2023/02/04 04:57:25;;;;;;;8.85;5.60;;;-2.00;99.90;;;;;;5051829;28;20024;-80
2023/02/04 04:59:50;;;;;;;7.60;4.75;;;-2.10;99.90;;;;;;5051639;28;20021;-79
2023/02/04 05:02:16;;;;;;;5.03;4.00;;;-2.10;99.90;;;;;;5051542;28;20375;-79
2023/02/04 05:04:41;;;;;;;5.22;3.90;;;-2.10;99.90;;;;;;5052769;28;20026;-79
2023/02/04 05:07:07;;;;;;;5.72;5.22;;;-2.10;99.90;;;;;;5051601;28;20032;-78
2023/02/04 05:09:32;;;;;;;6.63;5.82;;;-2.10;99.90;;;;;;5066533;28;20036;-80
2023/02/04 05:11:58;;;;;;;6.55;4.20;;;-2.10;99.90;;;;;;5065308;28;20032;-79
2023/02/04 05:14:24;;;;;;;3.17;2.88;;;-2.10;99.90;;;;;;5051625;28;20041;-78
2023/02/04 05:16:49;;;;;;;5.70;4.60;;;-2.10;99.90;;;;;;5051616;28;20025;-79
2023/02/04 05:19:15;;;;;;;6.65;4.90;;;-2.10;99.90;;;;;;5052758;28;20124;-78
2023/02/04 05:21:40;;;;;;;4.35;3.95;;;-2.10;99.90;;;;;;5053287;28;20056;-79
2023/02/04 05:24:06;;;;;;;4.43;3.65;;;-2.10;99.90;;;;;;5055307;28;20456;-79
2023/02/04 05:26:32;;;;;;;5.10;4.32;;;-2.10;99.90;;;;;;5056343;28;20473;-78
2023/02/04 05:29:01;;;;;;;8.13;5.55;;;-2.10;99.90;;;;;;5055136;28;20033;-79
2023/02/04 05:31:26;;;;;;;8.77;5.78;;;-2.10;99.90;;;;;;5055310;28;20043;-79
2023/02/04 05:33:53;;;;;;;26.10;15.13;;;-2.10;99.90;;;;;;5055265;28;20462;-79
2023/02/04 05:36:18;;;;;;;6.13;4.70;;;-2.10;99.90;;;;;;5055035;28;20120;-78
2023/02/04 05:38:44;;;;;;;6.07;4.93;;;-2.10;99.90;;;;;;5055124;28;20558;-79
2023/02/04 05:41:10;;;;;;;5.53;4.53;;;-2.10;99.90;;;;;;5056248;28;20021;-79
2023/02/04 05:43:35;;;;;;;4.85;4.45;;;-2.10;99.90;;;;;;5055014;28;20074;-79
2023/02/04 05:46:01;;;;;;;6.65;4.35;;;-2.20;99.90;;;;;;5054801;28;20096;-79
2023/02/04 05:48:27;;;;;;;5.57;4.70;;;-2.20;99.90;;;;;;5054916;28;20040;-80
2023/02/04 05:50:52;;;;;;;4.65;4.07;;;-2.20;99.90;;;;;;5054829;28;20021;-79
2023/02/04 05:53:18;;;;;;;4.95;3.83;;;-2.10;99.90;;;;;;5054928;28;20021;-79
2023/02/04 05:55:43;;;;;;;8.48;4.55;;;-2.20;99.90;;;;;;5054816;28;20063;-80
2023/02/04 05:58:09;;;;;;;6.78;4.47;;;-2.10;99.90;;;;;;5054774;28;20021;-80
2023/02/04 06:00:34;;;;;;;3.33;3.08;;;-2.20;99.90;;;;;;5054730;28;20115;-79
2023/02/04 06:03:00;;;;;;;8.68;4.95;;;-2.20;99.90;;;;;;5055955;28;20470;-79
2023/02/04 06:05:26;;;;;;;5.03;4.53;;;-2.20;99.90;;;;;;5054517;28;20035;-80
2023/02/04 06:07:51;;;;;;;8.55;5.88;;;-2.20;99.90;;;;;;5054456;28;20036;-80
2023/02/04 06:10:17;;;;;;;7.18;5.47;;;-2.20;99.90;;;;;;5054477;28;20021;-80
2023/02/04 06:12:42;;;;;;;5.90;4.00;;;-2.20;99.90;;;;;;5054602;28;20017;-80
2023/02/04 06:15:09;;;;;;;6.80;5.70;;;-2.20;99.90;;;;;;5054369;28;20025;-80
2023/02/04 06:17:34;;;;;;;7.45;4.55;;;-2.20;99.90;;;;;;5055615;28;20486;-80
2023/02/04 06:20:00;;;;;;;4.00;3.70;;;-2.20;99.90;;;;;;5055567;28;20025;-80
2023/02/04 06:22:26;;;;;;;8.18;6.30;;;-2.20;99.90;;;;;;5054240;28;20112;-79
2023/02/04 06:24:51;;;;;;;3.78;3.38;;;-2.20;99.90;;;;;;5054289;28;20123;-80
2023/02/04 06:27:22;;;;;;;5.47;4.95;;;-2.30;99.90;;;;;;5053921;28;20547;-80
2023/02/04 06:29:49;;;;;;;7.38;4.93;;;-2.30;99.90;;;;;;5053977;28;20041;-79
2023/02/04 06:32:15;;;;;;;7.35;5.28;;;-2.30;99.90;;;;;;5055069;28;20104;-79
2023/02/04 06:34:41;;;;;;;6.45;5.20;;;-2.30;99.90;;;;;;5053842;28;20458;-80
2023/02/04 06:37:06;;;;;;;5.50;4.47;;;-2.30;99.90;;;;;;5054004;28;20029;-80
2023/02/04 06:39:32;;;;;;;12.55;9.10;;;-2.30;99.90;;;;;;5053926;28;20083;-79
2023/02/04 06:41:57;;;;;;;9.88;6.20;;;-2.30;99.90;;;;;;5055000;28;20025;-81
2023/02/04 06:44:23;;;;;;;19.92;10.60;;;-2.30;99.90;;;;;;5055175;28;20029;-79
2023/02/04 06:46:48;;;;;;;9.82;7.53;;;-2.30;99.90;;;;;;5052549;28;20056;-80
2023/02/04 06:49:14;;;;;;;7.38;5.28;;;-2.30;99.90;;;;;;5046494;28;20029;-79
2023/02/04 06:51:40;;;;;;;10.18;5.78;;;-2.30;99.90;;;;;;5044106;28;20029;-81
2023/02/04 06:54:05;;;;;;;6.90;4.47;;;-2.30;99.90;;;;;;5060077;28;20032;-78
2023/02/04 06:56:31;;;;;;;7.22;4.97;;;-2.30;99.90;;;;;;5073558;28;20021;-79
2023/02/04 06:58:56;;;;;;;8.32;5.63;;;-2.30;99.90;;;;;;5070303;28;20035;-79
2023/02/04 07:01:22;;;;;;;8.50;5.82;;;-2.30;99.90;;;;;;5033503;28;20022;-80
2023/02/04 07:03:48;;;;;;;7.28;5.00;;;-2.30;99.90;;;;;;5037267;28;20060;-80
2023/02/04 07:06:13;;;;;;;10.23;6.53;;;-2.30;99.90;;;;;;5054507;28;20020;-79
2023/02/04 07:08:39;;;;;;;7.95;5.70;;;-2.30;99.90;;;;;;5051101;28;20032;-79
2023/02/04 07:11:04;;;;;;;5.93;4.90;;;-2.30;99.90;;;;;;5046138;28;20025;-79
2023/02/04 07:13:30;;;;;;;7.10;5.47;;;-2.30;99.90;;;;;;5044206;28;20026;-80
2023/02/04 07:15:55;;;;;;;13.73;8.23;;;-2.30;99.90;;;;;;5045290;28;20018;-80
2023/02/04 07:18:21;;;;;;;17.23;9.48;;;-2.30;99.90;;;;;;5042467;28;20033;-80
2023/02/04 07:20:46;;;;;;;13.18;8.05;;;-2.30;99.90;;;;;;5049273;28;20036;-80
2023/02/04 07:23:12;;;;;;;9.52;6.57;;;-2.20;99.90;;;;;;5053274;28;20469;-79
2023/02/04 07:25:38;;;;;;;13.75;7.18;;;-2.30;99.90;;;;;;5052487;28;20029;-80
2023/02/04 07:28:04;;;;;;;9.98;6.70;;;-2.30;99.90;;;;;;5052569;28;20106;-81
2023/02/04 07:30:33;;;;;;;8.85;4.47;;;-2.30;99.90;;;;;;5054097;28;20037;-82
2023/02/04 07:32:59;;;;;;;11.25;6.97;;;-2.30;99.90;;;;;;5053996;28;20021;-79
2023/02/04 07:35:24;;;;;;;10.95;6.15;;;-2.30;99.90;;;;;;5052716;28;20039;-80
2023/02/04 07:37:50;;;;;;;12.82;8.32;;;-2.30;99.90;;;;;;5052684;28;20108;-79
2023/02/04 07:40:16;;;;;;;6.50;4.60;;;-2.20;99.90;;;;;;5052536;28;20021;-79
2023/02/04 07:42:41;;;;;;;7.68;5.30;;;-2.30;99.90;;;;;;5050684;28;20111;-79
2023/02/04 07:45:07;;;;;;;12.52;8.88;;;-2.30;99.90;;;;;;5036081;28;20462;-80
2023/02/04 07:47:33;;;;;;;10.55;6.15;;;-2.30;99.90;;;;;;5037018;28;20033;-80
2023/02/04 07:49:58;;;;;;;14.55;9.70;;;-2.30;99.90;;;;;;5042463;28;20025;-81
2023/02/04 07:52:24;;;;;;;9.57;5.88;;;-2.30;99.90;;;;;;5048078;28;20364;-81
2023/02/04 07:54:51;;;;;;;13.48;8.07;;;-2.30;99.90;;;;;;5040481;28;20029;-81
2023/02/04 07:57:18;;;;;;;11.38;8.27;;;-2.30;99.90;;;;;;5040135;28;20028;-80
2023/02/04 07:59:43;;;;;;;9.13;6.20;;;-2.20;99.90;;;;;;5043347;28;20025;-80
2023/02/04 08:02:10;;;;;;;13.27;8.18;;;-2.20;99.90;;;;;;5041623;28;20378;-81
2023/02/04 08:04:36;;;;;;;10.73;6.97;;;-2.10;99.90;;;;;;5043225;28;20025;-81
2023/02/04 08:07:02;;;;;;;13.40;8.38;;;-2.00;99.90;;;;;;5046371;28;20025;-80
2023/02/04 08:09:28;;;;;;;17.55;8.77;;;-2.00;99.90;;;;;;5052168;28;20033;-83
2023/02/04 08:11:54;;;;;;;17.40;8.80;;;-1.90;99.90;;;;;;5052014;28;20014;-82
2023/02/04 08:14:20;;;;;;;9.55;5.97;;;-1.90;99.90;;;;;;5051240;28;20090;-82
2023/02/04 08:16:45;;;;;;;9.77;6.60;;;-2.00;99.90;;;;;;5051325;28;20033;-80
2023/02/04 08:19:17;;;;;;;12.15;7.57;;;-1.90;99.90;;;;;;5051403;28;20100;-81
2023/02/04 08:21:46;;;;;;;17.17;9.50;;;-1.70;99.90;;;;;;5050364;28;20494;-83
2023/02/04 08:24:13;;;;;;;22.42;13.25;;;-1.70;99.90;;;;;;5052566;28;20049;-82
2023/02/04 08:26:40;;;;;;;15.57;9.38;;;-1.70;99.90;;;;;;5035357;28;20053;-82
2023/02/04 08:29:06;;;;;;;10.02;7.30;;;-1.70;99.90;;;;;;5032760;28;20029;-82
2023/02/04 08:31:31;;;;;;;10.27;6.38;;;-1.70;99.90;;;;;;5046851;28;20064;-81
2023/02/04 08:33:57;;;;;;;9.73;6.32;;;-1.70;99.90;;;;;;5044003;28;20025;-82
2023/02/04 08:36:22;;;;;;;8.73;6.53;;;-1.70;99.90;;;;;;5042308;28;20528;-82
2023/02/04 08:38:48;;;;;;;6.75;4.88;;;-1.80;99.90;;;;;;5047525;28;20072;-82
2023/02/04 08:41:14;;;;;;;9.57;6.82;;;-1.80;99.90;;;;;;5039959;28;20045;-82
2023/02/04 08:43:40;;;;;;;9.70;8.13;;;-1.80;99.90;;;;;;5031340;28;20467;-82
2023/02/04 08:46:06;;;;;;;6.47;5.15;;;-1.70;99.90;;;;;;5049091;28;20046;-79
2023/02/04 08:48:32;;;;;;;14.30;8.77;;;-1.80;99.90;;;;;;5049183;28;20131;-81
2023/02/04 08:50:57;;;;;;;16.17;9.88;;;-1.60;99.90;;;;;;5051000;28;20048;-81
2023/02/04 08:53:23;;;;;;;11.88;8.32;;;-1.50;99.90;;;;;;5050780;28;20023;-79
2023/02/04 08:55:48;;;;;;;15.02;8.80;;;-1.40;99.90;;;;;;5064910;28;20039;-82
2023/02/04 08:58:14;;;;;;;18.60;11.05;;;-1.50;99.90;;;;;;5061182;28;20020;-81
2023/02/04 09:00:43;;;;;;;17.20;8.88;;;-1.50;99.90;;;;;;5063726;28;20481;-79
2023/02/04 09:03:09;;;;;;;24.63;13.38;;;-1.50;99.90;;;;;;5073837;28;20032;-79
2023/02/04 09:05:35;;;;;;;11.77;8.05;;;-1.50;99.90;;;;;;5053369;28;20728;-78
2023/02/04 09:08:00;;;;;;;14.90;9.80;;;-1.50;99.90;;;;;;5054073;28;20037;-79
2023/02/04 09:10:26;;;;;;;23.05;11.43;;;-1.30;99.90;;;;;;5055426;28;20104;-80
2023/02/04 09:12:55;;;;;;;12.75;8.05;;;-1.20;99.90;;;;;;5055322;28;20029;-80
2023/02/04 09:15:24;;;;;;;14.60;8.48;;;-1.20;99.90;;;;;;5054598;28;20025;-80
2023/02/04 09:17:53;;;;;;;24.65;12.25;;;-1.40;99.90;;;;;;5054776;28;20691;-79
2023/02/04 09:20:20;;;;;;;16.48;9.95;;;-1.50;99.90;;;;;;5053470;28;20044;-80
2023/02/04 09:22:46;;;;;;;15.02;9.52;;;-1.30;99.90;;;;;;5053605;28;20028;-80
2023/02/04 09:25:12;;;;;;;15.95;9.88;;;-1.50;99.90;;;;;;5052522;28;20057;-80
2023/02/04 09:27:38;;;;;;;17.40;10.40;;;-1.60;99.90;;;;;;5051506;28;20068;-80
2023/02/04 09:30:04;;;;;;;16.75;8.70;;;-1.50;99.90;;;;;;5053426;28;20029;-80
2023/02/04 09:32:30;;;;;;;18.23;10.75;;;-1.40;99.90;;;;;;5050350;28;20059;-80
2023/02/04 09:34:55;;;;;;;20.05;11.13;;;-1.60;99.90;;;;;;5053182;28;20024;-80
2023/02/04 09:37:23;;;;;;;11.75;8.48;;;-1.70;99.90;;;;;;5052928;28;20056;-80
2023/02/04 09:39:48;;;;;;;12.63;8.25;;;-1.70;99.90;;;;;;5053907;28;20021;-80
2023/02/04 09:42:15;;;;;;;11.02;6.93;;;-1.50;99.90;;;;;;5054355;28;20049;-80
2023/02/04 09:44:41;;;;;;;12.10;7.50;;;-1.50;99.90;;;;;;5053437;28;20086;-80
2023/02/04 09:47:10;;;;;;;9.13;6.85;;;-1.50;99.90;;;;;;5053036;28;20032;-80
2023/02/04 09:49:36;;;;;;;13.63;8.23;;;-1.70;99.90;;;;;;5052732;28;20103;-80
2023/02/04 09:52:01;;;;;;;9.23;6.68;;;-1.70;99.90;;;;;;5052993;28;20059;-80
2023/02/04 09:54:27;;;;;;;10.82;7.57;;;-1.60;99.90;;;;;;5055465;28;20375;-81
2023/02/04 09:56:53;;;;;;;7.88;6.30;;;-1.50;99.90;;;;;;5054927;28;20107;-80
2023/02/04 09:59:21;;;;;;;8.98;6.50;;;-1.40;99.90;;;;;;5056128;28;20017;-80
2023/02/04 10:02:04;;;;;;;14.50;10.05;;;-1.20;99.90;;;;;;5054917;28;20032;-80
2023/02/04 10:04:30;;;;;;;10.73;6.47;;;-0.80;99.90;;;;;;5056159;28;20454;-81
2023/02/04 10:06:57;;;;;;;9.23;6.05;;;-0.70;99.90;;;;;;5055794;28;20068;-80
2023/02/04 10:09:23;;;;;;;13.02;6.57;;;-0.70;99.90;;;;;;5055293;28;20033;-80
2023/02/04 10:11:49;;;;;;;17.95;8.13;;;-1.00;98.80;;;;;;5054544;28;20025;-80
2023/02/04 10:14:18;;;;;;;10.18;7.03;;;-1.40;99.90;;;;;;5054354;28;20017;-80
2023/02/04 10:16:53;;;;;;;8.30;5.78;;;-1.50;99.90;;;;;;5054505;28;20021;-80
2023/02/04 10:19:19;;;;;;;9.88;7.00;;;-1.50;99.90;;;;;;5054620;28;20021;-80
2023/02/04 10:21:45;;;;;;;10.57;7.18;;;-1.20;99.90;;;;;;5055633;28;20524;-80
2023/02/04 10:24:18;;;;;;;9.00;5.65;;;-1.00;99.90;;;;;;5055620;28;20075;-80
2023/02/04 10:26:44;;;;;;;6.50;5.22;;;-0.90;99.90;;;;;;5054197;28;20047;-80
2023/02/04 10:29:15;;;;;;;15.10;6.80;;;-0.80;98.00;;;;;;5054149;28;20465;-80
2023/02/04 10:31:43;;;;;;;5.53;4.60;;;-0.90;95.50;;;;;;5054329;28;20072;-80
2023/02/04 10:34:22;;;;;;;6.20;4.82;;;-1.20;95.80;;;;;;5055434;28;20104;-80
2023/02/04 10:36:57;;;;;;;8.50;4.70;;;-1.50;92.00;;;;;;5054292;28;20033;-80
2023/02/04 10:39:25;;;;;;;8.82;5.93;;;-1.30;94.80;;;;;;5054184;28;20017;-80
2023/02/04 10:41:56;;;;;;;10.25;4.85;;;-1.30;96.90;;;;;;5055436;28;20025;-80
2023/02/04 10:44:34;;;;;;;7.57;5.20;;;-1.10;95.40;;;;;;5055498;28;20100;-80
2023/02/04 10:47:13;;;;;;;6.40;5.05;;;-1.00;92.30;;;;;;5054071;28;20112;-80
2023/02/04 10:49:40;;;;;;;4.97;4.45;;;-0.90;93.10;;;;;;5055342;28;20037;-80
2023/02/04 10:52:15;;;;;;;8.00;5.82;;;-0.90;87.90;;;;;;5055187;28;20100;-80
2023/02/04 10:54:42;;;;;;;7.63;5.40;;;-0.80;87.80;;;;;;5055301;28;20104;-80
2023/02/04 10:57:24;;;;;;;8.90;4.97;;;-1.00;86.80;;;;;;5053803;28;20052;-80
2023/02/04 10:59:53;;;;;;;8.32;5.78;;;-0.90;93.90;;;;;;5053735;28;20397;-81
2023/02/04 11:02:34;;;;;;;8.57;4.97;;;-1.00;94.90;;;;;;5055031;28;20105;-80
2023/02/04 11:05:00;;;;;;;14.23;6.72;;;-1.20;97.90;;;;;;5053684;28;20128;-80
2023/02/04 11:07:26;;;;;;;12.65;7.20;;;-1.40;99.90;;;;;;5054876;28;20060;-80
2023/02/04 11:09:52;;;;;;;10.93;5.65;;;-1.50;99.90;;;;;;5053572;28;20025;-80
2023/02/04 11:12:23;;;;;;;9.95;6.30;;;-1.50;99.90;;;;;;5053574;28;20029;-80
2023/02/04 11:14:56;;;;;;;12.27;7.18;;;-1.40;99.90;;;;;;5053642;28;20024;-80
2023/02/04 11:17:33;;;;;;;9.82;6.15;;;-1.30;99.90;;;;;;5053614;28;20439;-80
2023/02/04 11:19:59;;;;;;;9.18;6.22;;;-1.20;99.10;;;;;;5053173;28;20025;-80
2023/02/04 11:22:52;;;;;;;7.70;6.35;;;-1.50;98.70;;;;;;5054754;28;20075;-80
2023/02/04 11:25:36;;;;;;;7.95;5.70;;;-1.60;97.50;;;;;;5053334;28;20050;-80
2023/02/04 11:28:24;;;;;;;10.07;6.70;;;-1.50;98.40;;;;;;5054228;28;20068;-80
2023/02/04 11:31:02;;;;;;;10.20;6.15;;;-1.50;98.90;;;;;;5054378;28;20033;-80
2023/02/04 11:33:49;;;;;;;9.32;5.35;;;-1.50;99.90;;;;;;5053281;28;20374;-80
2023/02/04 11:36:15;;;;;;;13.80;5.20;;;-1.40;99.70;;;;;;5052928;28;20031;-80
2023/02/04 11:38:46;;;;;;;7.97;5.28;;;-1.50;97.40;;;;;;5052961;28;20410;-80
2023/02/04 11:41:28;;;;;;;6.30;5.10;;;-1.60;94.80;;;;;;5054180;28;20051;-80
2023/02/04 11:43:55;;;;;;;8.32;5.13;;;-1.70;91.80;;;;;;5053015;28;20460;-80
2023/02/04 11:46:22;;;;;;;11.93;5.97;;;-1.70;91.60;;;;;;5054171;28;20029;-80
2023/02/04 11:48:52;;;;;;;10.02;5.43;;;-1.50;92.40;;;;;;5054102;28;20035;-80
2023/02/04 11:51:21;;;;;;;8.63;6.57;;;-1.70;92.00;;;;;;5052731;28;20028;-80
2023/02/04 11:53:50;;;;;;;11.38;5.72;;;-1.70;90.10;;;;;;5053978;28;20061;-81
2023/02/04 11:56:20;;;;;;;9.55;6.55;;;-1.80;91.00;;;;;;5052685;28;20082;-80
2023/02/04 11:58:47;;;;;;;10.80;6.30;;;-1.80;94.00;;;;;;5053679;28;20032;-80
2023/02/04 12:01:20;;;;;;;7.07;4.93;;;-1.50;95.10;;;;;;5053874;28;20036;-80
2023/02/04 12:03:49;;;;;;;10.05;5.53;;;-1.50;91.00;;;;;;5052507;28;20594;-80
2023/02/04 12:06:27;;;;;;;5.13;3.30;;;-1.70;88.90;;;;;;5052472;28;20013;-80
2023/02/04 12:09:05;;;;;;;5.40;3.53;;;-1.70;83.90;;;;;;5052563;28;20067;-80
2023/02/04 12:11:30;;;;;;;11.48;5.60;;;-1.70;83.30;;;;;;5052413;28;20017;-80
2023/02/04 12:14:05;;;;;;;10.63;6.18;;;-1.80;82.60;;;;;;5052530;28;20028;-80
2023/02/04 12:16:45;;;;;;;8.20;4.95;;;-1.90;81.30;;;;;;5052455;28;20048;-80
2023/02/04 12:19:14;;;;;;;5.88;5.07;;;-1.90;81.00;;;;;;5052368;28;20056;-80
2023/02/04 12:21:41;;;;;;;5.80;4.78;;;-2.00;81.50;;;;;;5052321;28;20021;-80
2023/02/04 12:24:06;;;;;;;5.93;3.58;;;-2.00;83.30;;;;;;5052150;28;20062;-80
2023/02/04 12:26:32;;;;;;;9.68;5.53;;;-2.20;81.50;;;;;;5053297;28;20041;-80
2023/02/04 12:29:01;;;;;;;5.15;4.45;;;-2.30;79.90;;;;;;5052164;28;20035;-80
2023/02/04 12:31:27;;;;;;;6.13;3.80;;;-2.30;81.30;;;;;;5052830;28;20028;-80
2023/02/04 12:33:53;;;;;;;10.60;6.07;;;-2.30;81.40;;;;;;5053473;28;20021;-80
2023/02/04 12:36:19;;;;;;;10.27;6.03;;;-2.30;83.20;;;;;;5051998;28;20108;-80
2023/02/04 12:38:44;;;;;;;8.90;5.75;;;-2.20;85.60;;;;;;5053476;28;20025;-80
2023/02/04 12:41:10;;;;;;;12.68;5.85;;;-2.10;86.30;;;;;;5051870;28;20013;-80
2023/02/04 12:43:36;;;;;;;17.70;7.78;;;-2.10;82.60;;;;;;5053321;28;20035;-80
2023/02/04 12:46:01;;;;;;;11.13;7.35;;;-2.00;82.50;;;;;;5051959;28;20059;-80
2023/02/04 12:48:27;;;;;;;9.82;5.88;;;-1.90;84.30;;;;;;5051942;28;20554;-80